Time;durP1;ratioP1;P1;durP2;ratioP2;P2;SDS_P1;SDS_P2;PMS_P1;PMS_P2;Temp;Humidity;BMP_temperature;BMP_pressure;BME280_temperature;BME280_humidity;BME280_pressure;Samples;Min_cycle;Max_cycle;Signal;HPM_P1;HPM_P2
2023/04/15 00:00:58;;;;;;;5.50;4.30;;;;;;;7.52;81.23;99804.63;106861;1270;62732;-85
2023/04/15 00:03:28;;;;;;;5.80;3.90;;;;;;;7.50;81.50;99808.27;107500;1270;60830;-85
2023/04/15 00:06:06;;;;;;;7.20;4.50;;;;;;;7.47;81.63;99816.70;107831;1270;73845;-85
2023/04/15 00:08:38;;;;;;;6.90;4.50;;;;;;;7.44;81.57;99822.28;108083;1270;69515;-86
2023/04/15 00:17:15;;;;;;;5.70;4.70;;;;;;;7.51;81.33;99800.29;100037;1268;955208;-86
2023/04/15 00:19:45;;;;;;;7.50;5.20;;;;;;;7.47;81.46;99799.92;105880;1270;71868;-85
2023/04/15 00:22:26;;;;;;;5.80;4.60;;;;;;;7.45;81.63;99794.34;105571;1268;68314;-84
2023/04/15 00:24:56;;;;;;;6.90;4.80;;;;;;;7.50;81.46;99791.33;105875;1268;72155;-86
2023/04/15 00:27:27;;;;;;;5.20;4.40;;;;;;;7.52;81.43;99800.56;108125;1268;59924;-88
2023/04/15 00:29:59;;;;;;;7.60;5.10;;;;;;;7.46;81.74;99801.27;108170;1267;60148;-87
2023/04/15 00:32:33;;;;;;;6.30;4.90;;;;;;;7.40;81.71;99793.91;107897;1267;73131;-87
2023/04/15 00:35:03;;;;;;;8.50;4.60;;;;;;;7.35;81.90;99793.68;108297;1268;70316;-86
2023/04/15 00:37:34;;;;;;;5.10;4.60;;;;;;;7.41;81.85;99798.95;106241;1271;71299;-88
2023/04/15 00:40:06;;;;;;;5.70;4.50;;;;;;;7.42;81.93;99799.89;106035;1267;60548;-87
2023/04/15 00:42:37;;;;;;;7.40;5.10;;;;;;;7.32;82.16;99796.06;106174;1267;61028;-87
2023/04/15 00:45:09;;;;;;;5.80;4.60;;;;;;;7.28;82.14;99804.89;105330;1273;73555;-81
2023/04/15 00:47:38;;;;;;;5.20;4.30;;;;;;;7.22;82.27;99801.39;105205;1274;71623;-81
2023/04/15 00:50:08;;;;;;;6.30;4.70;;;;;;;7.25;82.43;99795.87;105422;1272;72759;-82
2023/04/15 00:52:37;;;;;;;6.10;4.50;;;;;;;7.24;82.47;99792.63;105444;1273;60499;-82
2023/04/15 00:55:07;;;;;;;7.50;5.10;;;;;;;7.16;82.82;99794.36;105192;1268;60449;-80
2023/04/15 00:57:56;;;;;;;4.90;4.30;;;;;;;7.08;83.31;99791.95;105803;1269;76205;-83
2023/04/15 01:00:25;;;;;;;6.20;4.70;;;;;;;7.10;83.48;99795.70;105355;1268;70195;-79
2023/04/15 01:02:55;;;;;;;7.40;4.70;;;;;;;7.17;83.57;99799.63;105213;1269;72806;-80
2023/04/15 01:05:24;;;;;;;5.60;4.70;;;;;;;7.16;83.83;99812.87;105244;1267;61327;-81
2023/04/15 01:07:54;;;;;;;5.60;4.60;;;;;;;7.12;84.16;99810.69;105079;1267;60406;-80
2023/04/15 01:10:22;;;;;;;5.20;4.60;;;;;;;7.05;84.23;99802.64;105608;1268;73352;-79
2023/04/15 01:12:51;;;;;;;5.70;4.60;;;;;;;7.07;84.41;99801.19;105043;1273;71114;-80
2023/04/15 01:15:20;;;;;;;6.20;4.80;;;;;;;7.12;84.21;99802.16;105470;1268;73791;-83
2023/04/15 01:17:48;;;;;;;5.70;4.70;;;;;;;7.10;84.55;99802.05;106297;1269;61354;-85
2023/04/15 01:20:17;;;;;;;5.60;5.00;;;;;;;7.07;84.71;99804.80;106873;1271;60312;-84
2023/04/15 01:22:46;;;;;;;6.30;4.80;;;;;;;7.02;84.88;99804.71;106729;1268;74574;-85
2023/04/15 01:25:18;;;;;;;6.40;5.60;;;;;;;7.06;84.68;99809.48;105976;1269;70271;-83
2023/04/15 01:27:48;;;;;;;5.60;5.00;;;;;;;7.09;84.62;99804.38;106056;1268;73800;-86
2023/04/15 01:30:16;;;;;;;9.10;5.50;;;;;;;7.05;84.70;99803.77;106629;1269;59538;-84
2023/04/15 01:32:45;;;;;;;6.20;5.60;;;;;;;6.99;84.72;99801.13;105880;1268;60442;-82
2023/04/15 01:35:14;;;;;;;7.90;5.80;;;;;;;6.95;84.74;99799.69;105577;1268;72918;-82
2023/04/15 01:37:42;;;;;;;6.80;5.20;;;;;;;6.94;84.60;99802.51;104873;1269;70354;-84
2023/04/15 01:40:10;;;;;;;6.80;4.90;;;;;;;7.02;84.41;99805.05;105770;1274;74299;-87
2023/04/15 01:42:39;;;;;;;6.50;5.20;;;;;;;7.06;84.24;99815.95;106291;1268;60390;-87
2023/04/15 01:45:10;;;;;;;6.20;4.90;;;;;;;7.01;83.88;99822.95;105713;1273;60281;-88
2023/04/15 01:47:38;;;;;;;7.10;5.20;;;;;;;6.96;83.60;99824.69;105948;1274;74853;-82
2023/04/15 01:50:07;;;;;;;6.40;5.40;;;;;;;6.89;83.12;99822.25;106152;1269;69928;-80
2023/04/15 01:52:37;;;;;;;7.20;4.90;;;;;;;6.93;82.81;99824.98;105846;1273;75521;-82
2023/04/15 01:55:07;;;;;;;6.40;5.40;;;;;;;6.91;82.31;99825.85;106081;1269;60631;-82
2023/04/15 01:57:37;;;;;;;6.80;5.60;;;;;;;6.81;82.22;99829.00;107599;1268;60388;-82
2023/04/15 02:00:10;;;;;;;6.80;5.20;;;;;;;6.72;82.27;99826.89;108655;1268;73768;-84
2023/04/15 02:02:42;;;;;;;8.20;5.10;;;;;;;6.67;82.33;99837.71;108396;1268;70366;-82
2023/04/15 02:05:10;;;;;;;7.90;5.00;;;;;;;6.72;82.02;99839.90;108651;1268;72647;-81
2023/04/15 02:07:39;;;;;;;6.40;4.70;;;;;;;6.74;81.79;99838.65;108637;1268;60184;-82
2023/04/15 02:10:09;;;;;;;6.90;5.90;;;;;;;6.68;81.54;99844.67;108658;1269;59397;-80
2023/04/15 02:12:37;;;;;;;8.40;6.40;;;;;;;6.60;81.60;99842.09;108613;1268;73693;-85
2023/04/15 02:15:07;;;;;;;7.90;6.10;;;;;;;6.56;81.54;99850.02;108512;1268;70259;-81
2023/04/15 02:17:37;;;;;;;6.80;5.30;;;;;;;6.61;81.44;99844.91;108458;1268;72687;-83
2023/04/15 02:20:09;;;;;;;6.30;5.50;;;;;;;6.67;81.43;99847.16;108540;1268;58351;-78
2023/04/15 02:22:37;;;;;;;7.60;5.90;;;;;;;6.64;81.61;99851.14;108546;1268;58786;-80
2023/04/15 02:25:08;;;;;;;6.90;6.20;;;;;;;6.60;81.83;99855.45;108572;1269;72623;-81
2023/04/15 02:27:37;;;;;;;8.70;6.50;;;;;;;6.58;81.90;99854.73;108616;1268;70561;-79
2023/04/15 02:30:06;;;;;;;8.40;5.60;;;;;;;6.57;81.82;99859.95;108536;1268;72803;-81
2023/04/15 02:32:36;;;;;;;8.10;6.20;;;;;;;6.65;81.76;99865.65;108581;1268;62240;-80
2023/04/15 02:35:07;;;;;;;6.60;5.60;;;;;;;6.72;81.32;99870.04;108569;1268;59497;-78
2023/04/15 02:37:42;;;;;;;7.60;6.50;;;;;;;6.68;81.28;99869.42;108392;1270;72827;-78
2023/04/15 02:40:11;;;;;;;7.20;6.30;;;;;;;6.61;81.20;99869.01;108397;1273;68504;-78
2023/04/15 02:42:40;;;;;;;9.10;7.20;;;;;;;6.56;81.12;99870.88;108473;1268;71800;-80
2023/04/15 02:45:11;;;;;;;8.10;6.80;;;;;;;6.53;81.04;99871.70;108411;1268;62071;-81
2023/04/15 02:47:40;;;;;;;7.20;6.00;;;;;;;6.61;80.77;99871.02;108568;1269;60106;-80
2023/04/15 02:50:11;;;;;;;7.30;6.20;;;;;;;6.61;80.52;99871.18;108616;1268;72586;-80
2023/04/15 02:52:41;;;;;;;8.60;6.90;;;;;;;6.52;80.48;99874.95;108349;1269;70245;-79
2023/04/15 02:55:10;;;;;;;8.70;6.90;;;;;;;6.42;80.49;99886.95;108451;1268;70531;-77
2023/04/15 02:57:40;;;;;;;7.80;6.50;;;;;;;6.37;80.62;99883.36;108399;1271;61031;-79
2023/04/15 03:00:10;;;;;;;7.10;5.90;;;;;;;6.44;80.70;99883.54;108565;1268;59407;-82
2023/04/15 03:02:44;;;;;;;8.20;7.00;;;;;;;6.49;80.78;99888.93;108443;1269;73584;-85
2023/04/15 03:05:15;;;;;;;8.70;6.90;;;;;;;6.45;80.94;99889.26;108516;1268;70416;-82
2023/04/15 03:07:51;;;;;;;13.60;7.70;;;;;;;6.40;81.15;99888.85;107118;1273;72497;-82
2023/04/15 03:10:20;;;;;;;10.20;7.30;;;;;;;6.37;81.22;99891.92;106786;1268;60744;-80
2023/04/15 03:12:48;;;;;;;7.70;6.50;;;;;;;6.44;81.07;99892.89;107424;1268;60439;-81
2023/04/15 03:15:25;;;;;;;7.60;6.40;;;;;;;6.48;81.21;99893.94;107321;1268;73880;-79
2023/04/15 03:17:54;;;;;;;7.30;6.60;;;;;;;6.44;81.42;99899.79;106951;1271;68623;-79
2023/04/15 03:20:22;;;;;;;10.10;7.00;;;;;;;6.40;81.40;99888.34;107025;1272;71368;-81
2023/04/15 03:22:53;;;;;;;7.80;6.70;;;;;;;6.37;81.72;99888.31;107326;1270;61116;-79
2023/04/15 03:25:22;;;;;;;8.00;5.70;;;;;;;6.43;81.71;99887.67;107177;1268;60474;-79
2023/04/15 03:27:50;;;;;;;7.40;6.20;;;;;;;6.52;81.84;99889.95;107415;1270;73865;-80
2023/04/15 03:30:31;;;;;;;7.90;7.10;;;;;;;6.49;81.98;99886.96;107239;1272;68905;-83
2023/04/15 03:33:02;;;;;;;8.40;7.00;;;;;;;6.46;81.95;99884.48;107559;1267;72725;-80
2023/04/15 03:35:30;;;;;;;10.80;7.10;;;;;;;6.43;82.17;99882.84;107335;1270;60365;-81
2023/04/15 03:38:00;;;;;;;9.60;7.70;;;;;;;6.43;82.32;99883.91;107236;1268;60619;-81
2023/04/15 03:40:29;;;;;;;8.30;5.80;;;;;;;6.50;82.07;99882.70;107458;1270;74951;-82
2023/04/15 03:42:57;;;;;;;9.20;7.40;;;;;;;6.58;82.13;99886.72;107377;1270;70641;-79
2023/04/15 03:45:25;;;;;;;9.70;7.20;;;;;;;6.55;82.09;99881.92;107549;1268;70868;-81
2023/04/15 03:47:54;;;;;;;8.30;7.00;;;;;;;6.50;82.21;99888.66;107334;1273;59171;-79
2023/04/15 03:50:27;;;;;;;9.50;6.50;;;;;;;6.47;82.36;99892.48;107262;1273;60025;-80
2023/04/15 03:52:56;;;;;;;7.30;6.20;;;;;;;6.46;82.14;99890.58;107412;1268;74084;-79
2023/04/15 03:55:24;;;;;;;10.30;6.20;;;;;;;6.53;82.09;99888.94;107371;1268;68775;-79
2023/04/15 03:57:52;;;;;;;9.90;6.30;;;;;;;6.51;82.03;99892.99;107064;1270;71483;-78
2023/04/15 04:00:20;;;;;;;7.50;6.10;;;;;;;6.44;82.12;99893.23;107295;1270;60305;-79
2023/04/15 04:02:49;;;;;;;10.90;7.30;;;;;;;6.37;82.22;99881.92;107632;1270;60522;-80
2023/04/15 04:05:18;;;;;;;10.70;6.90;;;;;;;6.33;82.39;99887.23;107246;1273;71411;-82
2023/04/15 04:07:46;;;;;;;7.70;6.50;;;;;;;6.40;82.32;99881.95;107066;1272;70512;-85
2023/04/15 04:10:15;;;;;;;7.90;6.40;;;;;;;6.41;82.49;99879.95;107071;1272;71778;-81
2023/04/15 04:12:44;;;;;;;8.00;7.10;;;;;;;6.36;82.62;99881.67;107193;1269;60467;-81
2023/04/15 04:15:13;;;;;;;8.40;7.30;;;;;;;6.33;82.80;99887.39;107449;1268;60075;-78
2023/04/15 04:17:42;;;;;;;10.00;6.70;;;;;;;6.34;82.90;99895.75;107275;1273;74621;-79
2023/04/15 04:20:11;;;;;;;8.00;6.20;;;;;;;6.47;82.84;99895.98;106978;1270;70259;-79
2023/04/15 04:22:45;;;;;;;6.60;6.00;;;;;;;6.59;82.64;99897.52;107080;1274;72785;-76
